sensor_id;sensor_type;location;lat;lon;timestamp;pressure;altitude;pressure_sealevel;temperature
72278;BMP280;61204;49.980;8.358;2023-10-31T00:01:20;98763.91;;;12.68
72278;BMP280;61204;49.980;8.358;2023-10-31T00:03:46;98763.44;;;12.53
72278;BMP280;61204;49.980;8.358;2023-10-31T00:06:12;98770.91;;;12.51
72278;BMP280;61204;49.980;8.358;2023-10-31T00:08:37;98769.28;;;12.44
72278;BMP280;61204;49.980;8.358;2023-10-31T00:11:03;98769.81;;;12.38
72278;BMP280;61204;49.980;8.358;2023-10-31T00:13:28;98784.25;;;12.39
72278;BMP280;61204;49.980;8.358;2023-10-31T00:15:54;98787.47;;;12.33
72278;BMP280;61204;49.980;8.358;2023-10-31T00:18:19;98784.94;;;12.39
72278;BMP280;61204;49.980;8.358;2023-10-31T00:20:48;98787.19;;;12.25
72278;BMP280;61204;49.980;8.358;2023-10-31T00:23:18;98790.50;;;12.21
72278;BMP280;61204;49.980;8.358;2023-10-31T00:25:47;98800.47;;;12.13
72278;BMP280;61204;49.980;8.358;2023-10-31T00:28:12;98813.97;;;12.24
72278;BMP280;61204;49.980;8.358;2023-10-31T00:30:40;98819.31;;;12.20
72278;BMP280;61204;49.980;8.358;2023-10-31T00:33:06;98810.63;;;12.08
72278;BMP280;61204;49.980;8.358;2023-10-31T00:35:32;98816.03;;;12.06
72278;BMP280;61204;49.980;8.358;2023-10-31T00:37:57;98814.50;;;12.01
72278;BMP280;61204;49.980;8.358;2023-10-31T00:40:26;98819.88;;;11.99
72278;BMP280;61204;49.980;8.358;2023-10-31T00:42:51;98824.53;;;11.94
72278;BMP280;61204;49.980;8.358;2023-10-31T00:45:17;98830.66;;;11.93
72278;BMP280;61204;49.980;8.358;2023-10-31T00:47:43;98827.91;;;11.93
72278;BMP280;61204;49.980;8.358;2023-10-31T00:50:08;98825.66;;;11.87
72278;BMP280;61204;49.980;8.358;2023-10-31T00:52:35;98822.75;;;11.83
72278;BMP280;61204;49.980;8.358;2023-10-31T00:55:05;98827.16;;;11.72
72278;BMP280;61204;49.980;8.358;2023-10-31T00:57:31;98818.75;;;11.68
72278;BMP280;61204;49.980;8.358;2023-10-31T00:59:57;98833.19;;;11.69
72278;BMP280;61204;49.980;8.358;2023-10-31T01:02:22;98831.03;;;11.65
72278;BMP280;61204;49.980;8.358;2023-10-31T01:04:48;98823.88;;;11.58
72278;BMP280;61204;49.980;8.358;2023-10-31T01:07:13;98816.31;;;11.41
72278;BMP280;61204;49.980;8.358;2023-10-31T01:09:42;98824.31;;;11.35
72278;BMP280;61204;49.980;8.358;2023-10-31T01:12:09;98822.69;;;11.28
72278;BMP280;61204;49.980;8.358;2023-10-31T01:14:36;98825.72;;;11.18
72278;BMP280;61204;49.980;8.358;2023-10-31T01:17:02;98820.38;;;11.22
72278;BMP280;61204;49.980;8.358;2023-10-31T01:19:27;98827.19;;;11.21
72278;BMP280;61204;49.980;8.358;2023-10-31T01:21:53;98827.66;;;11.15
72278;BMP280;61204;49.980;8.358;2023-10-31T01:24:18;98831.66;;;11.12
72278;BMP280;61204;49.980;8.358;2023-10-31T01:26:44;98823.09;;;11.04
72278;BMP280;61204;49.980;8.358;2023-10-31T01:29:10;98834.22;;;11.08
72278;BMP280;61204;49.980;8.358;2023-10-31T01:31:35;98840.53;;;10.95
72278;BMP280;61204;49.980;8.358;2023-10-31T01:34:02;98837.81;;;10.95
72278;BMP280;61204;49.980;8.358;2023-10-31T01:36:28;98843.50;;;11.17
72278;BMP280;61204;49.980;8.358;2023-10-31T01:38:53;98850.88;;;11.12
72278;BMP280;61204;49.980;8.358;2023-10-31T01:41:19;98864.59;;;11.12
72278;BMP280;61204;49.980;8.358;2023-10-31T01:43:45;98862.88;;;11.05
72278;BMP280;61204;49.980;8.358;2023-10-31T01:46:10;98868.06;;;11.15
72278;BMP280;61204;49.980;8.358;2023-10-31T01:48:36;98872.44;;;11.20
72278;BMP280;61204;49.980;8.358;2023-10-31T01:51:03;98867.31;;;11.12
72278;BMP280;61204;49.980;8.358;2023-10-31T01:53:31;98852.31;;;11.15
72278;BMP280;61204;49.980;8.358;2023-10-31T01:55:59;98863.56;;;11.22
72278;BMP280;61204;49.980;8.358;2023-10-31T01:58:31;98862.31;;;11.25
72278;BMP280;61204;49.980;8.358;2023-10-31T02:01:00;98872.06;;;11.12
72278;BMP280;61204;49.980;8.358;2023-10-31T02:03:27;98877.94;;;11.04
72278;BMP280;61204;49.980;8.358;2023-10-31T02:05:54;98876.59;;;11.05
72278;BMP280;61204;49.980;8.358;2023-10-31T02:08:20;98873.34;;;11.09
72278;BMP280;61204;49.980;8.358;2023-10-31T02:10:46;98883.78;;;10.97
72278;BMP280;61204;49.980;8.358;2023-10-31T02:13:13;98889.00;;;10.90
72278;BMP280;61204;49.980;8.358;2023-10-31T02:15:41;98888.13;;;10.86
72278;BMP280;61204;49.980;8.358;2023-10-31T02:18:08;98894.41;;;10.88
72278;BMP280;61204;49.980;8.358;2023-10-31T02:20:35;98887.16;;;10.95
72278;BMP280;61204;49.980;8.358;2023-10-31T02:23:02;98884.84;;;10.89
72278;BMP280;61204;49.980;8.358;2023-10-31T02:25:29;98874.59;;;10.90
72278;BMP280;61204;49.980;8.358;2023-10-31T02:27:56;98872.41;;;10.86
72278;BMP280;61204;49.980;8.358;2023-10-31T02:30:22;98883.09;;;10.80
72278;BMP280;61204;49.980;8.358;2023-10-31T02:32:49;98879.47;;;10.76
72278;BMP280;61204;49.980;8.358;2023-10-31T02:35:16;98882.22;;;10.76
72278;BMP280;61204;49.980;8.358;2023-10-31T02:37:46;98877.31;;;10.43
72278;BMP280;61204;49.980;8.358;2023-10-31T02:40:12;98879.66;;;10.48
72278;BMP280;61204;49.980;8.358;2023-10-31T02:42:39;98884.84;;;10.42
72278;BMP280;61204;49.980;8.358;2023-10-31T02:45:05;98883.41;;;10.25
72278;BMP280;61204;49.980;8.358;2023-10-31T02:47:32;98879.94;;;10.25
72278;BMP280;61204;49.980;8.358;2023-10-31T02:49:57;98884.34;;;10.16
72278;BMP280;61204;49.980;8.358;2023-10-31T02:52:23;98886.72;;;10.08
72278;BMP280;61204;49.980;8.358;2023-10-31T02:54:48;98890.69;;;10.05
72278;BMP280;61204;49.980;8.358;2023-10-31T02:57:15;98891.81;;;10.00
72278;BMP280;61204;49.980;8.358;2023-10-31T02:59:42;98889.88;;;10.02
72278;BMP280;61204;49.980;8.358;2023-10-31T03:02:08;98890.47;;;9.85
72278;BMP280;61204;49.980;8.358;2023-10-31T03:04:33;98884.28;;;9.85
72278;BMP280;61204;49.980;8.358;2023-10-31T03:06:59;98887.72;;;9.85
72278;BMP280;61204;49.980;8.358;2023-10-31T03:09:25;98890.16;;;9.79
72278;BMP280;61204;49.980;8.358;2023-10-31T03:11:50;98887.34;;;9.63
72278;BMP280;61204;49.980;8.358;2023-10-31T03:14:16;98896.84;;;9.76
72278;BMP280;61204;49.980;8.358;2023-10-31T03:16:41;98901.91;;;9.82
72278;BMP280;61204;49.980;8.358;2023-10-31T03:19:07;98904.34;;;9.75
72278;BMP280;61204;49.980;8.358;2023-10-31T03:21:33;98904.69;;;9.97
72278;BMP280;61204;49.980;8.358;2023-10-31T03:23:59;98917.00;;;9.96
72278;BMP280;61204;49.980;8.358;2023-10-31T03:26:27;98923.47;;;10.03
72278;BMP280;61204;49.980;8.358;2023-10-31T03:28:52;98927.09;;;10.07
72278;BMP280;61204;49.980;8.358;2023-10-31T03:31:22;98929.31;;;10.11
72278;BMP280;61204;49.980;8.358;2023-10-31T03:33:49;98929.31;;;10.11
72278;BMP280;61204;49.980;8.358;2023-10-31T03:36:15;98942.06;;;10.20
72278;BMP280;61204;49.980;8.358;2023-10-31T03:38:40;98943.56;;;10.23
72278;BMP280;61204;49.980;8.358;2023-10-31T03:41:07;98946.81;;;10.20
72278;BMP280;61204;49.980;8.358;2023-10-31T03:43:33;98955.66;;;10.18
72278;BMP280;61204;49.980;8.358;2023-10-31T03:45:58;98959.44;;;10.11
72278;BMP280;61204;49.980;8.358;2023-10-31T03:48:24;98968.56;;;10.02
72278;BMP280;61204;49.980;8.358;2023-10-31T03:50:52;98973.56;;;9.92
72278;BMP280;61204;49.980;8.358;2023-10-31T03:53:18;98973.16;;;9.84
72278;BMP280;61204;49.980;8.358;2023-10-31T03:55:44;98971.25;;;9.72
72278;BMP280;61204;49.980;8.358;2023-10-31T03:58:10;98977.66;;;9.77
72278;BMP280;61204;49.980;8.358;2023-10-31T04:00:36;98984.03;;;9.95
72278;BMP280;61204;49.980;8.358;2023-10-31T04:03:02;98976.00;;;9.99
72278;BMP280;61204;49.980;8.358;2023-10-31T04:05:27;98972.97;;;9.93
72278;BMP280;61204;49.980;8.358;2023-10-31T04:07:53;98978.41;;;10.07
72278;BMP280;61204;49.980;8.358;2023-10-31T04:10:21;98974.88;;;10.04
72278;BMP280;61204;49.980;8.358;2023-10-31T04:12:50;98982.81;;;10.28
72278;BMP280;61204;49.980;8.358;2023-10-31T04:15:15;98988.78;;;10.24
72278;BMP280;61204;49.980;8.358;2023-10-31T04:17:41;98985.34;;;10.24
72278;BMP280;61204;49.980;8.358;2023-10-31T04:20:07;98980.19;;;10.30
72278;BMP280;61204;49.980;8.358;2023-10-31T04:22:33;98987.94;;;10.35
72278;BMP280;61204;49.980;8.358;2023-10-31T04:24:58;98992.91;;;10.39
72278;BMP280;61204;49.980;8.358;2023-10-31T04:27:24;99003.06;;;10.37
72278;BMP280;61204;49.980;8.358;2023-10-31T04:29:50;98999.63;;;10.36
72278;BMP280;61204;49.980;8.358;2023-10-31T04:32:15;99005.09;;;10.36
72278;BMP280;61204;49.980;8.358;2023-10-31T04:34:41;99009.31;;;10.53
72278;BMP280;61204;49.980;8.358;2023-10-31T04:37:06;99009.47;;;10.57
72278;BMP280;61204;49.980;8.358;2023-10-31T04:39:32;99019.41;;;10.64
72278;BMP280;61204;49.980;8.358;2023-10-31T04:41:57;99008.50;;;10.66
72278;BMP280;61204;49.980;8.358;2023-10-31T04:44:23;99015.88;;;10.77
72278;BMP280;61204;49.980;8.358;2023-10-31T04:46:48;99011.50;;;10.86
72278;BMP280;61204;49.980;8.358;2023-10-31T04:49:17;99024.03;;;10.91
72278;BMP280;61204;49.980;8.358;2023-10-31T04:51:42;99020.50;;;10.88
72278;BMP280;61204;49.980;8.358;2023-10-31T04:54:08;99015.13;;;10.90
72278;BMP280;61204;49.980;8.358;2023-10-31T04:56:34;99022.81;;;10.94
72278;BMP280;61204;49.980;8.358;2023-10-31T04:59:02;99022.00;;;10.92
72278;BMP280;61204;49.980;8.358;2023-10-31T05:01:28;99026.16;;;10.93
72278;BMP280;61204;49.980;8.358;2023-10-31T05:03:54;99035.91;;;10.80
72278;BMP280;61204;49.980;8.358;2023-10-31T05:06:20;99026.50;;;10.85
72278;BMP280;61204;49.980;8.358;2023-10-31T05:08:49;99030.78;;;10.88
72278;BMP280;61204;49.980;8.358;2023-10-31T05:11:18;99027.47;;;10.76
72278;BMP280;61204;49.980;8.358;2023-10-31T05:13:47;99034.28;;;10.75
72278;BMP280;61204;49.980;8.358;2023-10-31T05:16:12;99041.13;;;10.89
72278;BMP280;61204;49.980;8.358;2023-10-31T05:18:38;99030.84;;;10.90
72278;BMP280;61204;49.980;8.358;2023-10-31T05:21:05;99031.84;;;10.97
72278;BMP280;61204;49.980;8.358;2023-10-31T05:23:31;99019.75;;;11.02
72278;BMP280;61204;49.980;8.358;2023-10-31T05:25:56;99040.69;;;10.95
72278;BMP280;61204;49.980;8.358;2023-10-31T05:28:22;99033.88;;;10.96
72278;BMP280;61204;49.980;8.358;2023-10-31T05:30:48;99039.28;;;10.94
72278;BMP280;61204;49.980;8.358;2023-10-31T05:33:17;99049.34;;;11.05
72278;BMP280;61204;49.980;8.358;2023-10-31T05:35:42;99043.53;;;10.97
72278;BMP280;61204;49.980;8.358;2023-10-31T05:38:12;99051.66;;;10.95
72278;BMP280;61204;49.980;8.358;2023-10-31T05:40:38;99063.16;;;11.07
72278;BMP280;61204;49.980;8.358;2023-10-31T05:43:03;99064.47;;;11.06
72278;BMP280;61204;49.980;8.358;2023-10-31T05:45:30;99069.47;;;11.10
72278;BMP280;61204;49.980;8.358;2023-10-31T05:47:56;99061.75;;;11.06
72278;BMP280;61204;49.980;8.358;2023-10-31T05:50:21;99061.81;;;11.08
72278;BMP280;61204;49.980;8.358;2023-10-31T05:52:49;99073.06;;;10.99
72278;BMP280;61204;49.980;8.358;2023-10-31T05:55:15;99071.22;;;11.03
72278;BMP280;61204;49.980;8.358;2023-10-31T05:57:41;99061.56;;;11.02
72278;BMP280;61204;49.980;8.358;2023-10-31T06:00:11;99082.47;;;11.09
72278;BMP280;61204;49.980;8.358;2023-10-31T06:02:38;99076.72;;;11.19
72278;BMP280;61204;49.980;8.358;2023-10-31T06:05:04;99086.97;;;11.18
72278;BMP280;61204;49.980;8.358;2023-10-31T06:07:30;99087.50;;;11.15
72278;BMP280;61204;49.980;8.358;2023-10-31T06:09:55;99092.56;;;11.21
72278;BMP280;61204;49.980;8.358;2023-10-31T06:12:21;99086.78;;;11.14
72278;BMP280;61204;49.980;8.358;2023-10-31T06:14:47;99089.53;;;11.14
72278;BMP280;61204;49.980;8.358;2023-10-31T06:17:12;99105.28;;;11.14
72278;BMP280;61204;49.980;8.358;2023-10-31T06:19:38;99111.81;;;11.07
72278;BMP280;61204;49.980;8.358;2023-10-31T06:22:11;99125.84;;;11.13
72278;BMP280;61204;49.980;8.358;2023-10-31T06:24:37;99120.75;;;11.07
72278;BMP280;61204;49.980;8.358;2023-10-31T06:27:03;99129.88;;;11.12
72278;BMP280;61204;49.980;8.358;2023-10-31T06:29:28;99145.09;;;11.15
72278;BMP280;61204;49.980;8.358;2023-10-31T06:31:54;99146.94;;;11.10
72278;BMP280;61204;49.980;8.358;2023-10-31T06:34:19;99149.81;;;11.12
72278;BMP280;61204;49.980;8.358;2023-10-31T06:36:45;99153.56;;;11.05
72278;BMP280;61204;49.980;8.358;2023-10-31T06:39:13;99154.09;;;11.02
72278;BMP280;61204;49.980;8.358;2023-10-31T06:41:39;99155.06;;;11.08
72278;BMP280;61204;49.980;8.358;2023-10-31T06:44:04;99166.97;;;11.13
72278;BMP280;61204;49.980;8.358;2023-10-31T06:46:30;99171.63;;;11.10
72278;BMP280;61204;49.980;8.358;2023-10-31T06:48:55;99177.63;;;11.07
72278;BMP280;61204;49.980;8.358;2023-10-31T06:51:21;99185.78;;;11.05
72278;BMP280;61204;49.980;8.358;2023-10-31T06:53:49;99188.38;;;11.16
72278;BMP280;61204;49.980;8.358;2023-10-31T06:56:16;99187.97;;;11.08
72278;BMP280;61204;49.980;8.358;2023-10-31T06:58:41;99191.97;;;11.05
72278;BMP280;61204;49.980;8.358;2023-10-31T07:01:07;99185.56;;;11.01
72278;BMP280;61204;49.980;8.358;2023-10-31T07:03:32;99190.34;;;11.00
72278;BMP280;61204;49.980;8.358;2023-10-31T07:05:58;99195.41;;;11.06
72278;BMP280;61204;49.980;8.358;2023-10-31T07:08:24;99193.91;;;11.03
72278;BMP280;61204;49.980;8.358;2023-10-31T07:10:49;99194.41;;;10.99
72278;BMP280;61204;49.980;8.358;2023-10-31T07:13:15;99187.72;;;11.02
72278;BMP280;61204;49.980;8.358;2023-10-31T07:15:42;99197.44;;;11.05
72278;BMP280;61204;49.980;8.358;2023-10-31T07:18:07;99201.09;;;11.10
72278;BMP280;61204;49.980;8.358;2023-10-31T07:20:33;99204.13;;;11.16
72278;BMP280;61204;49.980;8.358;2023-10-31T07:22:59;99212.28;;;11.00
72278;BMP280;61204;49.980;8.358;2023-10-31T07:25:24;99215.84;;;11.03
72278;BMP280;61204;49.980;8.358;2023-10-31T07:27:50;99223.16;;;10.98
72278;BMP280;61204;49.980;8.358;2023-10-31T07:30:15;99223.44;;;11.04
72278;BMP280;61204;49.980;8.358;2023-10-31T07:32:41;99200.00;;;11.01
72278;BMP280;61204;49.980;8.358;2023-10-31T07:35:07;99233.09;;;11.05
72278;BMP280;61204;49.980;8.358;2023-10-31T07:37:33;99213.00;;;11.01
72278;BMP280;61204;49.980;8.358;2023-10-31T07:39:58;99234.59;;;11.08
72278;BMP280;61204;49.980;8.358;2023-10-31T07:42:24;99230.06;;;11.13
72278;BMP280;61204;49.980;8.358;2023-10-31T07:44:49;99234.59;;;11.08
72278;BMP280;61204;49.980;8.358;2023-10-31T07:47:16;99232.34;;;11.18
72278;BMP280;61204;49.980;8.358;2023-10-31T07:49:41;99229.72;;;11.21
72278;BMP280;61204;49.980;8.358;2023-10-31T07:52:07;99234.22;;;11.30
72278;BMP280;61204;49.980;8.358;2023-10-31T07:54:32;99245.53;;;11.36
72278;BMP280;61204;49.980;8.358;2023-10-31T07:56:58;99243.03;;;11.42
72278;BMP280;61204;49.980;8.358;2023-10-31T07:59:26;99239.25;;;11.49
72278;BMP280;61204;49.980;8.358;2023-10-31T08:01:52;99247.81;;;11.41
72278;BMP280;61204;49.980;8.358;2023-10-31T08:04:18;99248.19;;;11.50
72278;BMP280;61204;49.980;8.358;2023-10-31T08:06:46;99258.81;;;11.57
72278;BMP280;61204;49.980;8.358;2023-10-31T08:09:11;99261.38;;;11.53
72278;BMP280;61204;49.980;8.358;2023-10-31T08:11:37;99254.25;;;11.62
72278;BMP280;61204;49.980;8.358;2023-10-31T08:14:02;99251.69;;;11.66
72278;BMP280;61204;49.980;8.358;2023-10-31T08:16:28;99257.00;;;11.78
72278;BMP280;61204;49.980;8.358;2023-10-31T08:18:54;99257.09;;;11.80
72278;BMP280;61204;49.980;8.358;2023-10-31T08:21:19;99251.00;;;11.81
72278;BMP280;61204;49.980;8.358;2023-10-31T08:23:45;99255.41;;;12.04
72278;BMP280;61204;49.980;8.358;2023-10-31T08:26:12;99262.44;;;12.23
72278;BMP280;61204;49.980;8.358;2023-10-31T08:28:38;99269.63;;;12.14
72278;BMP280;61204;49.980;8.358;2023-10-31T08:31:04;99272.09;;;12.24
72278;BMP280;61204;49.980;8.358;2023-10-31T08:33:32;99268.19;;;12.13
72278;BMP280;61204;49.980;8.358;2023-10-31T08:35:58;99275.28;;;12.18
72278;BMP280;61204;49.980;8.358;2023-10-31T08:38:24;99284.34;;;12.54
72278;BMP280;61204;49.980;8.358;2023-10-31T08:40:51;99283.59;;;12.36
72278;BMP280;61204;49.980;8.358;2023-10-31T08:43:17;99289.44;;;12.44
72278;BMP280;61204;49.980;8.358;2023-10-31T08:45:43;99297.50;;;12.56
72278;BMP280;61204;49.980;8.358;2023-10-31T08:48:08;99306.97;;;12.53
72278;BMP280;61204;49.980;8.358;2023-10-31T08:50:34;99302.22;;;12.38
72278;BMP280;61204;49.980;8.358;2023-10-31T08:52:59;99325.63;;;12.39
72278;BMP280;61204;49.980;8.358;2023-10-31T08:55:25;99329.34;;;12.45
72278;BMP280;61204;49.980;8.358;2023-10-31T08:57:50;99337.28;;;12.55
72278;BMP280;61204;49.980;8.358;2023-10-31T09:00:18;99333.97;;;12.74
72278;BMP280;61204;49.980;8.358;2023-10-31T09:02:44;99340.63;;;12.85
72278;BMP280;61204;49.980;8.358;2023-10-31T09:05:10;99343.38;;;12.85
72278;BMP280;61204;49.980;8.358;2023-10-31T09:07:43;99342.41;;;12.78
72278;BMP280;61204;49.980;8.358;2023-10-31T09:10:09;99353.53;;;12.80
72278;BMP280;61204;49.980;8.358;2023-10-31T09:12:34;99366.09;;;12.85
72278;BMP280;61204;49.980;8.358;2023-10-31T09:15:00;99363.59;;;12.92
72278;BMP280;61204;49.980;8.358;2023-10-31T09:17:26;99361.13;;;12.98
72278;BMP280;61204;49.980;8.358;2023-10-31T09:19:51;99361.72;;;12.96
72278;BMP280;61204;49.980;8.358;2023-10-31T09:22:18;99379.38;;;13.07
72278;BMP280;61204;49.980;8.358;2023-10-31T09:24:44;99375.25;;;13.08
72278;BMP280;61204;49.980;8.358;2023-10-31T09:27:10;99367.47;;;13.02
72278;BMP280;61204;49.980;8.358;2023-10-31T09:29:35;99382.59;;;12.85
72278;BMP280;61204;49.980;8.358;2023-10-31T09:32:01;99386.59;;;12.82
72278;BMP280;61204;49.980;8.358;2023-10-31T09:34:28;99392.47;;;12.59
72278;BMP280;61204;49.980;8.358;2023-10-31T09:36:54;99377.47;;;12.62
72278;BMP280;61204;49.980;8.358;2023-10-31T09:39:19;99398.88;;;12.64
72278;BMP280;61204;49.980;8.358;2023-10-31T09:41:47;99387.25;;;12.49
72278;BMP280;61204;49.980;8.358;2023-10-31T09:44:12;99378.00;;;12.58
72278;BMP280;61204;49.980;8.358;2023-10-31T09:46:39;99399.97;;;12.74
72278;BMP280;61204;49.980;8.358;2023-10-31T09:49:06;99398.41;;;12.69
72278;BMP280;61204;49.980;8.358;2023-10-31T09:51:33;99401.50;;;12.93
72278;BMP280;61204;49.980;8.358;2023-10-31T09:54:01;99400.69;;;12.91
72278;BMP280;61204;49.980;8.358;2023-10-31T09:56:28;99410.84;;;12.86
72278;BMP280;61204;49.980;8.358;2023-10-31T09:59:00;99422.88;;;12.95
72278;BMP280;61204;49.980;8.358;2023-10-31T10:01:30;99409.09;;;13.10
72278;BMP280;61204;49.980;8.358;2023-10-31T10:03:56;99407.25;;;13.33
72278;BMP280;61204;49.980;8.358;2023-10-31T10:06:22;99408.28;;;13.41
72278;BMP280;61204;49.980;8.358;2023-10-31T10:08:49;99405.84;;;13.50
72278;BMP280;61204;49.980;8.358;2023-10-31T10:11:15;99412.56;;;13.62
72278;BMP280;61204;49.980;8.358;2023-10-31T10:13:42;99411.63;;;13.74
72278;BMP280;61204;49.980;8.358;2023-10-31T10:16:09;99413.88;;;13.61
72278;BMP280;61204;49.980;8.358;2023-10-31T10:18:37;99422.13;;;13.61
72278;BMP280;61204;49.980;8.358;2023-10-31T10:21:06;99419.38;;;13.79
72278;BMP280;61204;49.980;8.358;2023-10-31T10:23:33;99419.50;;;13.81
72278;BMP280;61204;49.980;8.358;2023-10-31T10:26:02;99425.38;;;14.09
72278;BMP280;61204;49.980;8.358;2023-10-31T10:28:28;99422.94;;;13.99
72278;BMP280;61204;49.980;8.358;2023-10-31T10:30:58;99424.25;;;13.98
72278;BMP280;61204;49.980;8.358;2023-10-31T10:33:24;99434.09;;;14.21
72278;BMP280;61204;49.980;8.358;2023-10-31T10:35:49;99425.75;;;14.19
72278;BMP280;61204;49.980;8.358;2023-10-31T10:38:17;99423.13;;;14.04
72278;BMP280;61204;49.980;8.358;2023-10-31T10:40:46;99423.06;;;14.21
72278;BMP280;61204;49.980;8.358;2023-10-31T10:45:57;99425.78;;;14.59
72278;BMP280;61204;49.980;8.358;2023-10-31T10:48:25;99418.66;;;14.52
72278;BMP280;61204;49.980;8.358;2023-10-31T10:51:07;99409.34;;;14.23
72278;BMP280;61204;49.980;8.358;2023-10-31T10:53:54;99417.34;;;14.15
72278;BMP280;61204;49.980;8.358;2023-10-31T10:56:34;99416.91;;;14.61
72278;BMP280;61204;49.980;8.358;2023-10-31T10:59:16;99405.56;;;14.33
72278;BMP280;61204;49.980;8.358;2023-10-31T11:01:46;99408.69;;;14.43
72278;BMP280;61204;49.980;8.358;2023-10-31T11:04:16;99397.47;;;14.76
72278;BMP280;61204;49.980;8.358;2023-10-31T11:06:42;99398.50;;;14.87
72278;BMP280;61204;49.980;8.358;2023-10-31T11:09:10;99390.41;;;14.93
72278;BMP280;61204;49.980;8.358;2023-10-31T11:11:37;99397.81;;;14.86
72278;BMP280;61204;49.980;8.358;2023-10-31T11:14:04;99410.50;;;14.36
72278;BMP280;61204;49.980;8.358;2023-10-31T11:16:41;99401.91;;;14.08
72278;BMP280;61204;49.980;8.358;2023-10-31T11:19:15;99411.44;;;14.05
72278;BMP280;61204;49.980;8.358;2023-10-31T11:22:00;99399.66;;;14.60
72278;BMP280;61204;49.980;8.358;2023-10-31T11:24:35;99405.56;;;14.52
72278;BMP280;61204;49.980;8.358;2023-10-31T11:27:05;99398.50;;;14.67
72278;BMP280;61204;49.980;8.358;2023-10-31T11:29:33;99401.34;;;14.49
72278;BMP280;61204;49.980;8.358;2023-10-31T11:32:01;99403.91;;;14.25
72278;BMP280;61204;49.980;8.358;2023-10-31T11:34:29;99405.44;;;14.48
72278;BMP280;61204;49.980;8.358;2023-10-31T11:42:38;99401.81;;;14.83
72278;BMP280;61204;49.980;8.358;2023-10-31T11:45:07;99413.78;;;15.12
72278;BMP280;61204;49.980;8.358;2023-10-31T11:47:50;99411.72;;;15.32
72278;BMP280;61204;49.980;8.358;2023-10-31T11:50:17;99407.06;;;14.55
72278;BMP280;61204;49.980;8.358;2023-10-31T11:52:45;99418.88;;;15.20
72278;BMP280;61204;49.980;8.358;2023-10-31T11:55:34;99422.19;;;15.36
72278;BMP280;61204;49.980;8.358;2023-10-31T11:58:18;99420.50;;;15.49
72278;BMP280;61204;49.980;8.358;2023-10-31T12:01:01;99424.50;;;15.43
72278;BMP280;61204;49.980;8.358;2023-10-31T12:03:42;99425.22;;;15.44
72278;BMP280;61204;49.980;8.358;2023-10-31T12:06:13;99433.19;;;15.56
72278;BMP280;61204;49.980;8.358;2023-10-31T12:08:42;99431.78;;;15.13
72278;BMP280;61204;49.980;8.358;2023-10-31T12:11:13;99424.03;;;15.29
72278;BMP280;61204;49.980;8.358;2023-10-31T12:16:33;99436.81;;;15.40
72278;BMP280;61204;49.980;8.358;2023-10-31T12:19:04;99440.06;;;15.79
72278;BMP280;61204;49.980;8.358;2023-10-31T12:21:45;99441.69;;;15.00
72278;BMP280;61204;49.980;8.358;2023-10-31T12:24:15;99435.22;;;15.33
72278;BMP280;61204;49.980;8.358;2023-10-31T12:29:14;99439.06;;;15.68
72278;BMP280;61204;49.980;8.358;2023-10-31T12:31:51;99441.69;;;15.86
72278;BMP280;61204;49.980;8.358;2023-10-31T12:34:20;99436.75;;;15.38
72278;BMP280;61204;49.980;8.358;2023-10-31T12:36:50;99441.69;;;15.64
72278;BMP280;61204;49.980;8.358;2023-10-31T12:39:21;99436.81;;;15.62
72278;BMP280;61204;49.980;8.358;2023-10-31T12:41:54;99454.38;;;15.49
72278;BMP280;61204;49.980;8.358;2023-10-31T12:44:24;99446.91;;;15.12
72278;BMP280;61204;49.980;8.358;2023-10-31T12:46:52;99463.44;;;14.90
72278;BMP280;61204;49.980;8.358;2023-10-31T12:49:20;99460.41;;;14.82
72278;BMP280;61204;49.980;8.358;2023-10-31T12:57:04;99458.69;;;15.54
72278;BMP280;61204;49.980;8.358;2023-10-31T12:59:36;99462.66;;;15.71
72278;BMP280;61204;49.980;8.358;2023-10-31T13:02:03;99465.03;;;16.28
72278;BMP280;61204;49.980;8.358;2023-10-31T13:04:31;99463.84;;;15.88
72278;BMP280;61204;49.980;8.358;2023-10-31T13:09:36;99460.13;;;15.35
72278;BMP280;61204;49.980;8.358;2023-10-31T13:12:08;99463.56;;;15.78
72278;BMP280;61204;49.980;8.358;2023-10-31T13:14:34;99468.25;;;15.73
72278;BMP280;61204;49.980;8.358;2023-10-31T13:17:04;99467.22;;;16.08
72278;BMP280;61204;49.980;8.358;2023-10-31T13:19:29;99474.63;;;15.80
72278;BMP280;61204;49.980;8.358;2023-10-31T13:21:55;99476.13;;;15.83
72278;BMP280;61204;49.980;8.358;2023-10-31T13:24:21;99473.75;;;15.95
72278;BMP280;61204;49.980;8.358;2023-10-31T13:26:49;99477.72;;;15.90
72278;BMP280;61204;49.980;8.358;2023-10-31T13:29:17;99476.16;;;16.07
72278;BMP280;61204;49.980;8.358;2023-10-31T13:31:44;99475.91;;;15.98
72278;BMP280;61204;49.980;8.358;2023-10-31T13:34:09;99474.63;;;15.80
72278;BMP280;61204;49.980;8.358;2023-10-31T13:36:35;99472.34;;;15.94
72278;BMP280;61204;49.980;8.358;2023-10-31T13:39:04;99470.97;;;15.95
72278;BMP280;61204;49.980;8.358;2023-10-31T13:41:30;99476.41;;;16.15
72278;BMP280;61204;49.980;8.358;2023-10-31T13:43:58;99474.97;;;15.90
72278;BMP280;61204;49.980;8.358;2023-10-31T13:46:28;99479.22;;;15.93
72278;BMP280;61204;49.980;8.358;2023-10-31T13:48:54;99480.56;;;15.70
72278;BMP280;61204;49.980;8.358;2023-10-31T13:51:19;99476.84;;;15.61
72278;BMP280;61204;49.980;8.358;2023-10-31T13:53:45;99489.91;;;15.81
72278;BMP280;61204;49.980;8.358;2023-10-31T13:56:11;99479.31;;;15.73
72278;BMP280;61204;49.980;8.358;2023-10-31T13:58:36;99472.09;;;15.86
72278;BMP280;61204;49.980;8.358;2023-10-31T14:01:02;99486.59;;;15.64
72278;BMP280;61204;49.980;8.358;2023-10-31T14:03:28;99479.22;;;15.71
72278;BMP280;61204;49.980;8.358;2023-10-31T14:05:53;99477.94;;;15.74
72278;BMP280;61204;49.980;8.358;2023-10-31T14:08:20;99489.44;;;15.88
72278;BMP280;61204;49.980;8.358;2023-10-31T14:10:46;99490.28;;;15.93
72278;BMP280;61204;49.980;8.358;2023-10-31T14:13:12;99494.56;;;15.98
72278;BMP280;61204;49.980;8.358;2023-10-31T14:15:38;99494.91;;;15.86
72278;BMP280;61204;49.980;8.358;2023-10-31T14:18:03;99494.13;;;15.84
72278;BMP280;61204;49.980;8.358;2023-10-31T14:20:29;99494.13;;;15.84
72278;BMP280;61204;49.980;8.358;2023-10-31T14:22:55;99492.25;;;15.47
72278;BMP280;61204;49.980;8.358;2023-10-31T14:25:22;99508.78;;;15.25
72278;BMP280;61204;49.980;8.358;2023-10-31T14:27:48;99506.63;;;15.21
72278;BMP280;61204;49.980;8.358;2023-10-31T14:30:13;99512.47;;;15.11